NORTHERN QUEENS  -  Freeze Warning Freeze Warning        SOUTHERN QUEENS  -  Freeze Warning Freeze Warning      

Active alerts

Northern Queens
  Details for Northern Queens Freeze Warning
Southern Queens
  Details for Southern Queens Freeze Warning


WXM80 ListenWXM80 Stop

You find our weather info also at:

UK Metoffice

WeatherCloud

Weather Underground

Northeastern Weather Network

AWEKAS

Citizen Weather Observer Program (CWOP)

HAMweather, WeatherForYou, PWS Weather


Weather Underground History page Text

Daily Summary for December 26, 2017 Units:  English    Metric   Both
« Previous Day
Next Day »
Daily Weekly Monthly Yearly Custom
  High: Low: Average:
Temperature: 29.1 °F 24.3 °F 26.7 °F
Dew Point: 14.1 °F 7.9 °F 9.5 °F
Humidity: 56 % 43 % 48 %
Wind Speed: 12.2 mph 0.4 mph 5.6 mph
Wind Gust: 23.0 mph - -
Wind:- - West
Pressure: 30.45 in 30.21 in -
Precipitation: 0.00 in    
Historical Graphs
 
 
Tabular Data for December 26, 2017
Time Temperature Dew Point Pressure Wind Wind Speed Wind Gust Humidity Rainfall Rate (Hourly)
00:03 29.1 °F 14.1 °F 30.21 in SW 12.0 mph 19.6 mph 53 % 0.00 in
00:08 29.1 °F 13.6 °F 30.21 in West 11.9 mph 19.6 mph 52 % 0.00 in
00:13 29.0 °F 13.1 °F 30.21 in NW 7.9 mph 19.6 mph 51 % 0.00 in
00:16 29.0 °F 13.6 °F 30.21 in West 8.6 mph 9.2 mph 52 % 0.00 in
00:17 29.0 °F 13.6 °F 30.21 in SW 7.3 mph 18.4 mph 52 % 0.00 in
00:22 28.9 °F 13.9 °F 30.21 in WSW 8.7 mph 15.0 mph 53 % 0.00 in
00:23 28.9 °F 13.9 °F 30.21 in SSW 5.0 mph 15.0 mph 53 % 0.00 in
00:28 28.8 °F 12.9 °F 30.21 in West 8.4 mph 20.7 mph 51 % 0.00 in
00:31 28.8 °F 12.9 °F 30.21 in WSW 12.0 mph 20.7 mph 51 % 0.00 in
00:34 28.8 °F 12.9 °F 30.21 in West 11.4 mph 15.0 mph 51 % 0.00 in
00:39 28.7 °F 12.8 °F 30.21 in NW 9.2 mph 19.6 mph 51 % 0.00 in
00:45 28.7 °F 12.8 °F 30.21 in West 7.9 mph 23.0 mph 51 % 0.00 in
00:46 28.7 °F 12.4 °F 30.21 in WSW 7.1 mph 17.0 mph 50 % 0.00 in
00:51 28.6 °F 12.7 °F 30.21 in SW 6.5 mph 9.2 mph 51 % 0.00 in
00:55 28.6 °F 12.7 °F 30.21 in WSW 5.8 mph 15.0 mph 51 % 0.00 in
01:00 28.6 °F 12.7 °F 30.21 in WSW 8.3 mph 16.1 mph 51 % 0.00 in
01:05 28.5 °F 13.1 °F 30.22 in WSW 8.9 mph 15.0 mph 52 % 0.00 in
01:06 28.6 °F 13.6 °F 30.23 in SW 7.6 mph 11.5 mph 53 % 0.00 in
01:11 28.5 °F 13.1 °F 30.23 in NW 8.1 mph 17.0 mph 52 % 0.00 in
01:12 28.5 °F 13.1 °F 30.22 in NW 9.3 mph 17.3 mph 52 % 0.00 in
01:17 28.4 °F 13.0 °F 30.23 in West 9.7 mph 15.0 mph 52 % 0.00 in
01:22 28.4 °F 13.4 °F 30.22 in West 8.7 mph 15.0 mph 53 % 0.00 in
01:25 28.4 °F 13.0 °F 30.22 in West 9.1 mph 15.0 mph 52 % 0.00 in
01:31 28.3 °F 12.9 °F 30.22 in West 8.0 mph 15.0 mph 52 % 0.00 in
01:32 28.3 °F 12.9 °F 30.22 in WNW 9.2 mph 15.0 mph 52 % 0.00 in
01:37 28.2 °F 13.2 °F 30.23 in WNW 4.7 mph 10.4 mph 53 % 0.00 in
01:40 28.3 °F 13.8 °F 30.22 in West 7.5 mph 18.4 mph 54 % 0.00 in
01:45 28.2 °F 13.2 °F 30.23 in West 7.6 mph 13.8 mph 53 % 0.00 in
01:48 28.2 °F 13.7 °F 30.23 in West 5.5 mph 13.0 mph 54 % 0.00 in
01:51 28.2 °F 13.2 °F 30.23 in WSW 7.8 mph 13.0 mph 53 % 0.00 in
01:54 28.2 °F 13.2 °F 30.23 in WNW 2.7 mph 5.8 mph 53 % 0.00 in
01:59 28.1 °F 12.7 °F 30.22 in WNW 8.3 mph 17.3 mph 52 % 0.00 in
02:04 28.0 °F 12.6 °F 30.23 in SW 11.5 mph 16.1 mph 52 % 0.00 in
02:06 28.0 °F 12.6 °F 30.23 in WNW 9.9 mph 19.6 mph 52 % 0.00 in
02:09 28.0 °F 12.6 °F 30.23 in West 5.0 mph 8.1 mph 52 % 0.00 in
02:13 28.0 °F 12.2 °F 30.23 in WNW 9.3 mph 16.1 mph 51 % 0.00 in
02:18 28.0 °F 11.7 °F 30.23 in West 8.2 mph 15.0 mph 50 % 0.00 in
02:23 27.9 °F 10.7 °F 30.24 in SW 9.1 mph 13.8 mph 48 % 0.00 in
02:28 27.8 °F 10.6 °F 30.24 in NNW 8.2 mph 15.0 mph 48 % 0.00 in
02:33 27.8 °F 11.1 °F 30.25 in WSW 6.8 mph 14.0 mph 49 % 0.00 in
02:35 27.8 °F 10.6 °F 30.24 in WNW 3.2 mph 13.8 mph 48 % 0.00 in
02:40 27.7 °F 10.5 °F 30.24 in West 10.0 mph 18.4 mph 48 % 0.00 in
02:45 27.6 °F 10.0 °F 30.24 in SW 6.1 mph 15.0 mph 47 % 0.00 in
02:46 27.6 °F 10.4 °F 30.24 in WNW 8.5 mph 17.0 mph 48 % 0.00 in
02:51 27.6 °F 10.4 °F 30.24 in West 8.5 mph 15.0 mph 48 % 0.00 in
02:56 27.5 °F 10.8 °F 30.24 in NW 7.1 mph 15.0 mph 49 % 0.00 in
02:58 27.5 °F 10.8 °F 30.25 in WSW 5.0 mph 11.5 mph 49 % 0.00 in
03:03 27.5 °F 10.8 °F 30.25 in WSW 6.1 mph 14.0 mph 49 % 0.00 in
03:04 27.5 °F 10.4 °F 30.25 in NW 8.1 mph 16.0 mph 48 % 0.00 in
03:09 27.4 °F 9.8 °F 30.25 in WNW 5.9 mph 12.0 mph 47 % 0.00 in
03:10 27.4 °F 9.8 °F 30.25 in West 6.4 mph 11.5 mph 47 % 0.00 in
03:15 27.3 °F 9.7 °F 30.26 in SW 5.4 mph 11.5 mph 47 % 0.00 in
03:19 27.3 °F 9.7 °F 30.26 in West 9.1 mph 16.1 mph 47 % 0.00 in
03:24 27.2 °F 9.1 °F 30.26 in WNW 12.2 mph 18.4 mph 46 % 0.00 in
03:28 27.2 °F 9.1 °F 30.26 in West 8.8 mph 15.0 mph 46 % 0.00 in
03:31 27.2 °F 9.6 °F 30.26 in SW 6.6 mph 11.5 mph 47 % 0.00 in
03:36 27.1 °F 9.5 °F 30.25 in West 8.7 mph 19.0 mph 47 % 0.00 in
03:41 27.1 °F 9.0 °F 30.26 in WNW 10.2 mph 13.8 mph 46 % 0.00 in
03:46 27.0 °F 9.4 °F 30.25 in West 4.6 mph 11.5 mph 47 % 0.00 in
03:48 27.0 °F 9.9 °F 30.25 in WSW 7.8 mph 13.0 mph 48 % 0.00 in
03:53 26.9 °F 9.3 °F 30.25 in WSW 10.0 mph 17.3 mph 47 % 0.00 in
03:54 26.9 °F 8.8 °F 30.25 in West 9.0 mph 15.0 mph 46 % 0.00 in
03:59 26.9 °F 8.8 °F 30.25 in West 8.5 mph 13.0 mph 46 % 0.00 in
04:00 26.9 °F 8.8 °F 30.25 in WNW 9.2 mph 16.0 mph 46 % 0.00 in
04:05 26.8 °F 8.8 °F 30.25 in West 9.3 mph 16.0 mph 46 % 0.00 in
04:07 26.8 °F 8.8 °F 30.26 in WNW 7.0 mph 14.0 mph 46 % 0.00 in
04:12 26.8 °F 8.8 °F 30.26 in WNW 3.1 mph 6.9 mph 46 % 0.00 in
04:14 26.7 °F 8.2 °F 30.26 in WSW 4.8 mph 8.1 mph 45 % 0.00 in
04:19 26.7 °F 8.2 °F 30.26 in West 9.4 mph 12.7 mph 45 % 0.00 in
04:22 26.6 °F 8.6 °F 30.26 in WNW 9.8 mph 20.7 mph 46 % 0.00 in
04:26 26.6 °F 8.6 °F 30.26 in NW 5.5 mph 12.7 mph 46 % 0.00 in
04:29 26.6 °F 9.1 °F 30.26 in WSW 4.8 mph 12.7 mph 47 % 0.00 in
04:34 26.5 °F 9.0 °F 30.26 in SSW 4.4 mph 10.4 mph 47 % 0.00 in
04:35 26.5 °F 9.0 °F 30.26 in NW 6.3 mph 13.8 mph 47 % 0.00 in
04:40 26.4 °F 8.4 °F 30.25 in SW 9.6 mph 13.8 mph 46 % 0.00 in
04:43 26.4 °F 8.4 °F 30.26 in SW 9.9 mph 12.0 mph 46 % 0.00 in
04:49 26.4 °F 8.9 °F 30.26 in WNW 6.1 mph 12.7 mph 47 % 0.00 in
04:50 26.3 °F 8.8 °F 30.26 in West 5.7 mph 11.5 mph 47 % 0.00 in
04:55 26.3 °F 8.8 °F 30.26 in WSW 8.4 mph 8.4 mph 47 % 0.00 in
04:57 26.3 °F 8.8 °F 30.26 in WNW 10.6 mph 15.0 mph 47 % 0.00 in
05:02 26.4 °F 8.9 °F 30.27 in WSW 7.2 mph 16.1 mph 47 % 0.00 in
05:07 26.3 °F 8.8 °F 30.27 in NW 6.5 mph 13.8 mph 47 % 0.00 in
05:08 26.3 °F 8.8 °F 30.27 in WNW 6.3 mph 13.8 mph 47 % 0.00 in
05:09 26.4 °F 8.9 °F 30.27 in WSW 3.4 mph 11.5 mph 47 % 0.00 in
05:14 26.3 °F 8.8 °F 30.27 in WSW 7.0 mph 17.3 mph 47 % 0.00 in
05:15 26.3 °F 8.8 °F 30.27 in SW 6.9 mph 10.4 mph 47 % 0.00 in
05:20 26.2 °F 8.7 °F 30.27 in WNW 4.9 mph 11.5 mph 47 % 0.00 in
05:24 26.2 °F 8.7 °F 30.27 in West 3.3 mph 15.0 mph 47 % 0.00 in
05:26 26.2 °F 8.7 °F 30.28 in WSW 10.2 mph 15.0 mph 47 % 0.00 in
05:31 26.1 °F 8.1 °F 30.28 in West 6.8 mph 15.0 mph 46 % 0.00 in
05:36 26.1 °F 8.6 °F 30.28 in SW 6.1 mph 16.1 mph 47 % 0.00 in
05:40 26.1 °F 9.1 °F 30.28 in SW 6.7 mph 11.5 mph 48 % 0.00 in
05:45 26.0 °F 8.5 °F 30.28 in NW 6.1 mph 16.1 mph 47 % 0.00 in
05:50 26.0 °F 8.5 °F 30.29 in NNW 8.3 mph 13.8 mph 47 % 0.00 in
05:51 25.9 °F 8.4 °F 30.29 in West 5.9 mph 15.0 mph 47 % 0.00 in
05:56 25.8 °F 8.8 °F 30.29 in WSW 6.0 mph 17.3 mph 48 % 0.00 in
05:57 25.8 °F 8.8 °F 30.29 in WSW 4.9 mph 11.5 mph 48 % 0.00 in
05:59 25.8 °F 8.8 °F 30.29 in WSW 6.8 mph 14.0 mph 48 % 0.00 in
06:03 25.7 °F 8.7 °F 30.29 in SW 7.1 mph 12.7 mph 48 % 0.00 in
06:08 25.7 °F 9.2 °F 30.30 in WNW 5.9 mph 10.4 mph 49 % 0.00 in
06:11 25.7 °F 8.7 °F 30.30 in NW 4.9 mph 9.2 mph 48 % 0.00 in
06:16 25.7 °F 9.2 °F 30.30 in NW 5.7 mph 10.4 mph 49 % 0.00 in
06:19 25.6 °F 8.6 °F 30.30 in WSW 8.6 mph 12.7 mph 48 % 0.00 in
06:22 25.6 °F 8.6 °F 30.30 in WSW 4.4 mph 17.0 mph 48 % 0.00 in
06:23 25.6 °F 9.1 °F 30.30 in SW 9.2 mph 17.3 mph 49 % 0.00 in
06:28 25.6 °F 8.6 °F 30.30 in West 3.0 mph 8.0 mph 48 % 0.00 in
06:30 25.5 °F 9.0 °F 30.31 in WNW 1.9 mph 4.6 mph 49 % 0.00 in
06:35 25.5 °F 9.0 °F 30.31 in WNW 8.5 mph 13.8 mph 49 % 0.00 in
06:36 25.5 °F 9.0 °F 30.31 in West 8.0 mph 14.0 mph 49 % 0.00 in
06:41 25.5 °F 8.5 °F 30.31 in West 7.0 mph 21.0 mph 48 % 0.00 in
06:42 25.5 °F 8.5 °F 30.32 in WSW 9.3 mph 17.3 mph 48 % 0.00 in
06:45 25.4 °F 8.4 °F 30.32 in SSW 5.7 mph 13.0 mph 48 % 0.00 in
06:50 25.5 °F 9.0 °F 30.32 in WSW 9.2 mph 13.0 mph 49 % 0.00 in
06:53 25.5 °F 8.5 °F 30.32 in WSW 5.9 mph 8.1 mph 48 % 0.00 in
06:55 25.5 °F 8.5 °F 30.33 in SW 6.3 mph 12.7 mph 48 % 0.00 in
07:00 25.6 °F 8.6 °F 30.33 in WNW 3.4 mph 7.0 mph 48 % 0.00 in
07:05 25.5 °F 8.5 °F 30.33 in WNW 8.5 mph 15.0 mph 48 % 0.00 in
07:09 25.5 °F 8.5 °F 30.34 in WSW 7.7 mph 12.7 mph 48 % 0.00 in
07:12 25.5 °F 8.5 °F 30.34 in West 9.7 mph 15.0 mph 48 % 0.00 in
07:17 25.4 °F 8.4 °F 30.34 in SW 7.3 mph 9.2 mph 48 % 0.00 in
07:23 25.4 °F 7.9 °F 30.34 in SW 5.6 mph 10.4 mph 47 % 0.00 in
07:24 25.4 °F 7.9 °F 30.34 in WNW 6.2 mph 9.2 mph 47 % 0.00 in
07:29 25.4 °F 8.9 °F 30.34 in West 7.6 mph 12.0 mph 49 % 0.00 in
07:30 25.3 °F 8.8 °F 30.34 in SW 5.4 mph 11.5 mph 49 % 0.00 in
07:35 25.3 °F 8.3 °F 30.34 in West 5.2 mph 17.3 mph 48 % 0.00 in
07:40 25.3 °F 8.8 °F 30.35 in SW 8.0 mph 17.3 mph 49 % 0.00 in
07:41 25.3 °F 8.8 °F 30.35 in West 7.0 mph 17.0 mph 49 % 0.00 in
07:46 25.3 °F 8.8 °F 30.35 in West 10.2 mph 15.0 mph 49 % 0.00 in
07:48 25.3 °F 8.8 °F 30.35 in NW 7.0 mph 16.1 mph 49 % 0.00 in
07:53 25.3 °F 8.8 °F 30.35 in NW 9.0 mph 16.0 mph 49 % 0.00 in
07:58 25.2 °F 8.2 °F 30.36 in West 9.2 mph 12.7 mph 48 % 0.00 in
08:03 25.2 °F 8.7 °F 30.36 in WSW 5.9 mph 18.4 mph 49 % 0.00 in
08:08 25.3 °F 8.8 °F 30.36 in WSW 7.3 mph 11.5 mph 49 % 0.00 in
08:13 25.4 °F 8.9 °F 30.36 in West 3.5 mph 6.0 mph 49 % 0.00 in
08:16 25.4 °F 8.9 °F 30.37 in SW 4.4 mph 11.5 mph 49 % 0.00 in
08:19 25.4 °F 8.9 °F 30.37 in West 8.1 mph 13.8 mph 49 % 0.00 in
08:23 25.5 °F 9.0 °F 30.37 in WNW 4.6 mph 9.0 mph 49 % 0.00 in
08:24 25.5 °F 9.4 °F 30.36 in West 5.6 mph 9.2 mph 50 % 0.00 in
08:29 25.5 °F 9.4 °F 30.37 in WNW 6.1 mph 13.8 mph 50 % 0.00 in
08:33 25.5 °F 9.0 °F 30.37 in NW 5.9 mph 13.8 mph 49 % 0.00 in
08:34 25.5 °F 9.0 °F 30.37 in WSW 5.9 mph 10.4 mph 49 % 0.00 in
08:39 25.6 °F 9.1 °F 30.37 in WSW 7.4 mph 17.3 mph 49 % 0.00 in
08:44 25.6 °F 9.1 °F 30.37 in West 4.6 mph 9.2 mph 49 % 0.00 in
08:49 25.7 °F 8.7 °F 30.37 in West 3.7 mph 11.5 mph 48 % 0.00 in
08:50 25.7 °F 8.7 °F 30.37 in West 4.8 mph 12.0 mph 48 % 0.00 in
08:55 25.8 °F 8.8 °F 30.38 in West 5.5 mph 11.5 mph 48 % 0.00 in
08:59 25.9 °F 8.4 °F 30.37 in WNW 5.3 mph 13.8 mph 47 % 0.00 in
09:04 25.9 °F 8.9 °F 30.38 in WSW 4.8 mph 13.8 mph 48 % 0.00 in
09:06 26.0 °F 9.0 °F 30.38 in WSW 7.0 mph 12.0 mph 48 % 0.00 in
09:12 26.1 °F 9.1 °F 30.38 in WSW 7.0 mph 11.5 mph 48 % 0.00 in
09:16 26.1 °F 9.1 °F 30.38 in West 9.2 mph 18.4 mph 48 % 0.00 in
09:18 26.1 °F 9.1 °F 30.38 in WSW 4.3 mph 11.5 mph 48 % 0.00 in
09:23 26.2 °F 9.2 °F 30.38 in WNW 8.0 mph 13.8 mph 48 % 0.00 in
09:27 26.2 °F 8.7 °F 30.38 in WNW 5.5 mph 11.5 mph 47 % 0.00 in
09:29 26.2 °F 9.2 °F 30.38 in WNW 4.4 mph 10.4 mph 48 % 0.00 in
09:34 26.3 °F 9.2 °F 30.39 in West 6.5 mph 11.5 mph 48 % 0.00 in
09:35 26.3 °F 9.2 °F 30.39 in WSW 2.6 mph 11.5 mph 48 % 0.00 in
09:40 26.4 °F 9.8 °F 30.39 in WSW 7.7 mph 13.8 mph 49 % 0.00 in
09:43 26.4 °F 9.8 °F 30.38 in WSW 5.1 mph 13.8 mph 49 % 0.00 in
09:48 26.5 °F 9.9 °F 30.39 in WSW 9.3 mph 19.6 mph 49 % 0.00 in
09:49 26.5 °F 9.9 °F 30.38 in WSW 11.7 mph 15.0 mph 49 % 0.00 in
09:54 26.6 °F 10.0 °F 30.38 in SW 5.6 mph 11.5 mph 49 % 0.00 in
09:58 26.7 °F 9.1 °F 30.38 in West 3.3 mph 10.4 mph 47 % 0.00 in
10:00 26.7 °F 9.1 °F 30.38 in West 8.7 mph 15.0 mph 47 % 0.00 in
10:05 27.0 °F 9.9 °F 30.38 in WNW 7.9 mph 13.8 mph 48 % 0.00 in
10:06 27.0 °F 9.9 °F 30.38 in West 7.0 mph 15.0 mph 48 % 0.00 in
10:11 27.2 °F 10.1 °F 30.38 in West 4.5 mph 16.1 mph 48 % 0.00 in
10:16 27.5 °F 10.4 °F 30.39 in West 7.0 mph 13.0 mph 48 % 0.00 in
10:19 27.7 °F 10.1 °F 30.38 in WSW 5.9 mph 11.5 mph 47 % 0.00 in
10:23 27.8 °F 10.2 °F 30.38 in West 8.4 mph 15.0 mph 47 % 0.00 in
10:28 27.8 °F 9.7 °F 30.38 in WNW 7.4 mph 11.5 mph 46 % 0.00 in
10:32 27.8 °F 9.2 °F 30.39 in West 5.1 mph 11.5 mph 45 % 0.00 in
10:36 27.8 °F 9.2 °F 30.38 in West 4.7 mph 13.8 mph 45 % 0.00 in
10:38 27.8 °F 9.2 °F 30.38 in WSW 8.4 mph 16.1 mph 45 % 0.00 in
10:43 27.7 °F 9.1 °F 30.38 in WSW 6.8 mph 9.2 mph 45 % 0.00 in
10:44 27.6 °F 9.0 °F 30.38 in WNW 6.3 mph 12.0 mph 45 % 0.00 in
10:49 27.7 °F 9.1 °F 30.38 in SW 5.2 mph 11.5 mph 45 % 0.00 in
10:51 27.7 °F 9.1 °F 30.38 in WNW 4.9 mph 11.5 mph 45 % 0.00 in
10:56 27.8 °F 9.2 °F 30.38 in WNW 4.4 mph 6.0 mph 45 % 0.00 in
10:58 27.9 °F 9.8 °F 30.38 in NW 2.5 mph 6.9 mph 46 % 0.00 in
11:03 27.9 °F 9.3 °F 30.38 in NW 6.8 mph 11.5 mph 45 % 0.00 in
11:05 27.9 °F 9.3 °F 30.38 in WSW 7.9 mph 10.0 mph 45 % 0.00 in
11:06 27.9 °F 8.8 °F 30.38 in NW 4.7 mph 13.8 mph 44 % 0.00 in
11:11 27.8 °F 8.7 °F 30.37 in West 7.8 mph 12.0 mph 44 % 0.00 in
11:15 27.8 °F 8.7 °F 30.37 in West 6.2 mph 15.0 mph 44 % 0.00 in
11:20 27.8 °F 8.7 °F 30.37 in WNW 3.3 mph 8.1 mph 44 % 0.00 in
11:21 27.9 °F 9.3 °F 30.37 in WNW 6.0 mph 10.4 mph 45 % 0.00 in
11:26 27.9 °F 8.8 °F 30.37 in NW 7.3 mph 13.0 mph 44 % 0.00 in
11:29 27.9 °F 9.3 °F 30.36 in WSW 4.7 mph 8.1 mph 45 % 0.00 in
11:33 27.9 °F 8.8 °F 30.36 in WSW 6.3 mph 11.5 mph 44 % 0.00 in
11:37 27.9 °F 9.3 °F 30.36 in WSW 5.9 mph 13.8 mph 45 % 0.00 in
11:42 27.9 °F 8.8 °F 30.36 in West 5.6 mph 11.0 mph 44 % 0.00 in
11:43 27.9 °F 8.8 °F 30.36 in WSW 4.2 mph 10.4 mph 44 % 0.00 in
11:48 27.8 °F 9.2 °F 30.35 in SSW 7.4 mph 16.1 mph 45 % 0.00 in
11:49 27.8 °F 8.7 °F 30.35 in WSW 4.3 mph 11.5 mph 44 % 0.00 in
11:53 27.8 °F 9.2 °F 30.35 in SW 5.7 mph 12.0 mph 45 % 0.00 in
11:58 27.9 °F 8.8 °F 30.35 in West 6.9 mph 11.5 mph 44 % 0.00 in
11:59 27.9 °F 9.3 °F 30.35 in WSW 3.2 mph 10.4 mph 45 % 0.00 in
12:00 27.9 °F 9.3 °F 30.35 in WSW 5.3 mph 13.8 mph 45 % 0.00 in
12:05 28.1 °F 9.5 °F 30.35 in West 6.9 mph 14.0 mph 45 % 0.00 in
12:10 28.1 °F 9.0 °F 30.35 in West 7.9 mph 13.0 mph 44 % 0.00 in
12:15 27.9 °F 8.3 °F 30.35 in SW 6.5 mph 13.8 mph 43 % 0.00 in
12:20 27.7 °F 8.6 °F 30.35 in West 4.3 mph 8.1 mph 44 % 0.00 in
12:21 27.7 °F 9.1 °F 30.35 in West 5.6 mph 8.1 mph 45 % 0.00 in
12:27 27.6 °F 9.0 °F 30.35 in WNW 5.9 mph 13.8 mph 45 % 0.00 in
12:30 27.5 °F 8.9 °F 30.35 in West 6.1 mph 13.0 mph 45 % 0.00 in
12:35 27.4 °F 8.8 °F 30.35 in WNW 7.3 mph 13.0 mph 45 % 0.00 in
12:40 27.3 °F 8.7 °F 30.34 in WNW 2.1 mph 6.9 mph 45 % 0.00 in
12:41 27.3 °F 9.2 °F 30.34 in WSW 2.8 mph 6.9 mph 46 % 0.00 in
12:46 27.4 °F 9.8 °F 30.34 in West 6.0 mph 8.1 mph 47 % 0.00 in
12:48 27.4 °F 9.3 °F 30.35 in WNW 4.6 mph 10.4 mph 46 % 0.00 in
12:53 27.4 °F 9.3 °F 30.34 in West 4.3 mph 9.2 mph 46 % 0.00 in
12:54 27.4 °F 8.8 °F 30.35 in SW 4.8 mph 9.2 mph 45 % 0.00 in
12:59 27.4 °F 8.8 °F 30.34 in NW 6.0 mph 10.4 mph 45 % 0.00 in
13:04 27.5 °F 9.4 °F 30.34 in WNW 2.3 mph 6.9 mph 46 % 0.00 in
13:07 27.6 °F 9.5 °F 30.34 in West 6.0 mph 9.0 mph 46 % 0.00 in
13:12 27.8 °F 9.2 °F 30.35 in WNW 5.4 mph 9.2 mph 45 % 0.00 in
13:18 27.8 °F 8.7 °F 30.35 in WNW 7.3 mph 11.5 mph 44 % 0.00 in
13:23 27.8 °F 9.2 °F 30.34 in SSW 5.4 mph 11.5 mph 45 % 0.00 in
13:24 27.8 °F 9.2 °F 30.34 in West 3.6 mph 11.5 mph 45 % 0.00 in
13:26 27.8 °F 9.2 °F 30.34 in WSW 3.7 mph 4.6 mph 45 % 0.00 in
13:29 27.9 °F 9.8 °F 30.34 in SW 6.8 mph 11.0 mph 46 % 0.00 in
13:34 28.1 °F 9.5 °F 30.34 in NW 8.2 mph 12.7 mph 45 % 0.00 in
13:36 28.1 °F 9.5 °F 30.34 in WSW 5.7 mph 9.0 mph 45 % 0.00 in
13:41 28.1 °F 9.0 °F 30.34 in West 7.9 mph 11.5 mph 44 % 0.00 in
13:42 28.1 °F 9.0 °F 30.34 in WNW 6.8 mph 13.8 mph 44 % 0.00 in
13:47 28.2 °F 10.0 °F 30.34 in WNW 6.1 mph 11.5 mph 46 % 0.00 in
13:52 28.3 °F 9.6 °F 30.34 in NW 6.2 mph 6.9 mph 45 % 0.00 in
13:53 28.3 °F 9.6 °F 30.34 in NW 5.4 mph 9.2 mph 45 % 0.00 in
13:58 28.4 °F 9.2 °F 30.34 in WSW 3.3 mph 7.0 mph 44 % 0.00 in
13:59 28.4 °F 9.2 °F 30.34 in WSW 3.3 mph 5.0 mph 44 % 0.00 in
14:01 28.4 °F 9.7 °F 30.34 in NW 4.3 mph 9.2 mph 45 % 0.00 in
14:03 28.4 °F 9.7 °F 30.34 in WNW 7.1 mph 11.5 mph 45 % 0.00 in
14:08 28.5 °F 9.3 °F 30.34 in West 4.3 mph 11.5 mph 44 % 0.00 in
14:11 28.5 °F 9.3 °F 30.34 in West 5.6 mph 11.5 mph 44 % 0.00 in
14:16 28.4 °F 9.7 °F 30.34 in SW 5.6 mph 11.5 mph 45 % 0.00 in
14:21 28.4 °F 10.2 °F 30.35 in NW 3.5 mph 8.1 mph 46 % 0.00 in
14:26 28.3 °F 10.1 °F 30.34 in WNW 6.5 mph 10.4 mph 46 % 0.00 in
14:29 28.3 °F 10.1 °F 30.34 in WSW 5.5 mph 11.5 mph 46 % 0.00 in
14:34 28.1 °F 9.0 °F 30.34 in West 6.8 mph 12.7 mph 44 % 0.00 in
14:35 28.1 °F 9.0 °F 30.34 in West 5.8 mph 11.5 mph 44 % 0.00 in
14:36 28.1 °F 9.5 °F 30.34 in SW 5.8 mph 11.5 mph 45 % 0.00 in
14:41 28.0 °F 8.9 °F 30.34 in WNW 4.7 mph 6.9 mph 44 % 0.00 in
14:43 27.9 °F 8.8 °F 30.34 in WNW 4.4 mph 11.5 mph 44 % 0.00 in
14:48 27.9 °F 9.3 °F 30.34 in West 3.4 mph 9.2 mph 45 % 0.00 in
14:51 27.9 °F 8.3 °F 30.34 in WSW 7.2 mph 13.8 mph 43 % 0.00 in
14:56 27.8 °F 8.2 °F 30.34 in WNW 4.6 mph 10.4 mph 43 % 0.00 in
14:57 27.8 °F 8.2 °F 30.34 in West 4.0 mph 10.4 mph 43 % 0.00 in
15:02 27.7 °F 8.1 °F 30.34 in WSW 5.7 mph 11.5 mph 43 % 0.00 in
15:04 27.7 °F 8.1 °F 30.35 in West 4.8 mph 8.1 mph 43 % 0.00 in
15:09 27.7 °F 8.1 °F 30.35 in WNW 4.1 mph 6.9 mph 43 % 0.00 in
15:15 27.7 °F 9.1 °F 30.35 in SW 4.9 mph 9.2 mph 45 % 0.00 in
15:16 27.7 °F 9.1 °F 30.35 in WNW 4.9 mph 10.4 mph 45 % 0.00 in
15:22 27.6 °F 8.5 °F 30.35 in West 1.1 mph 6.9 mph 44 % 0.00 in
15:25 27.6 °F 8.5 °F 30.35 in WSW 4.8 mph 8.1 mph 44 % 0.00 in
15:26 27.6 °F 8.5 °F 30.35 in West 5.2 mph 8.1 mph 44 % 0.00 in
15:31 27.6 °F 8.5 °F 30.35 in SW 3.8 mph 9.2 mph 44 % 0.00 in
15:37 27.5 °F 7.9 °F 30.35 in WNW 4.8 mph 11.5 mph 43 % 0.00 in
15:38 27.5 °F 7.9 °F 30.35 in WSW 4.6 mph 9.2 mph 43 % 0.00 in
15:43 27.4 °F 8.3 °F 30.35 in WNW 4.6 mph 8.0 mph 44 % 0.00 in
15:46 27.4 °F 8.3 °F 30.35 in West 5.3 mph 9.2 mph 44 % 0.00 in
15:49 27.4 °F 8.3 °F 30.35 in WSW 3.9 mph 11.5 mph 44 % 0.00 in
15:54 27.4 °F 8.8 °F 30.35 in West 4.0 mph 8.1 mph 45 % 0.00 in
15:59 27.3 °F 8.2 °F 30.35 in West 5.0 mph 9.0 mph 44 % 0.00 in
16:04 27.3 °F 8.2 °F 30.35 in WSW 2.1 mph 11.5 mph 44 % 0.00 in
16:06 27.3 °F 8.2 °F 30.35 in WSW 4.2 mph 10.4 mph 44 % 0.00 in
16:08 27.3 °F 8.2 °F 30.35 in WSW 6.8 mph 10.4 mph 44 % 0.00 in
16:13 27.2 °F 8.1 °F 30.35 in WSW 3.3 mph 15.0 mph 44 % 0.00 in
16:14 27.2 °F 8.1 °F 30.36 in WSW 4.1 mph 8.1 mph 44 % 0.00 in
16:19 27.2 °F 8.6 °F 30.36 in WNW 6.3 mph 10.4 mph 45 % 0.00 in
16:20 27.2 °F 8.6 °F 30.36 in West 5.6 mph 10.4 mph 45 % 0.00 in
16:24 27.1 °F 8.0 °F 30.36 in WNW 3.5 mph 9.0 mph 44 % 0.00 in
16:26 27.1 °F 8.0 °F 30.36 in West 6.0 mph 9.0 mph 44 % 0.00 in
16:31 27.1 °F 8.0 °F 30.36 in West 3.0 mph 7.0 mph 44 % 0.00 in
16:34 27.0 °F 8.0 °F 30.36 in WNW 4.0 mph 9.2 mph 44 % 0.00 in
16:35 27.0 °F 8.5 °F 30.36 in SW 5.4 mph 10.4 mph 45 % 0.00 in
16:40 27.0 °F 8.5 °F 30.37 in West 3.3 mph 5.8 mph 45 % 0.00 in
16:43 26.9 °F 8.4 °F 30.37 in WNW 6.0 mph 11.5 mph 45 % 0.00 in
16:48 26.9 °F 8.4 °F 30.37 in SW 4.0 mph 8.0 mph 45 % 0.00 in
16:49 26.9 °F 8.4 °F 30.37 in WSW 5.0 mph 8.0 mph 45 % 0.00 in
16:50 26.9 °F 8.8 °F 30.36 in WNW 4.4 mph 9.2 mph 46 % 0.00 in
16:55 26.9 °F 8.8 °F 30.37 in West 2.5 mph 4.6 mph 46 % 0.00 in
16:56 26.9 °F 8.8 °F 30.37 in WNW 2.6 mph 4.6 mph 46 % 0.00 in
17:01 26.8 °F 8.8 °F 30.37 in WNW 5.8 mph 10.4 mph 46 % 0.00 in
17:04 26.8 °F 8.8 °F 30.38 in West 5.4 mph 9.2 mph 46 % 0.00 in
17:07 26.8 °F 9.2 °F 30.38 in West 5.3 mph 11.0 mph 47 % 0.00 in
17:11 26.8 °F 8.8 °F 30.38 in West 3.9 mph 9.2 mph 46 % 0.00 in
17:14 26.7 °F 8.7 °F 30.38 in WNW 6.3 mph 13.0 mph 46 % 0.00 in
17:19 26.7 °F 8.7 °F 30.38 in NW 3.8 mph 10.4 mph 46 % 0.00 in
17:22 26.7 °F 8.7 °F 30.39 in West 5.9 mph 8.1 mph 46 % 0.00 in
17:27 26.7 °F 9.1 °F 30.39 in WSW 5.4 mph 11.5 mph 47 % 0.00 in
17:28 26.7 °F 9.1 °F 30.39 in WNW 5.6 mph 8.1 mph 47 % 0.00 in
17:29 26.7 °F 9.1 °F 30.38 in West 5.5 mph 11.5 mph 47 % 0.00 in
17:34 26.7 °F 8.7 °F 30.39 in West 5.8 mph 10.4 mph 46 % 0.00 in
17:36 26.7 °F 8.2 °F 30.39 in West 8.2 mph 13.0 mph 45 % 0.00 in
17:41 26.7 °F 8.2 °F 30.39 in WNW 2.9 mph 9.2 mph 45 % 0.00 in
17:45 26.7 °F 8.7 °F 30.39 in West 4.7 mph 7.0 mph 46 % 0.00 in
17:47 26.7 °F 8.7 °F 30.39 in West 4.0 mph 11.5 mph 46 % 0.00 in
17:49 26.7 °F 9.1 °F 30.40 in WSW 4.5 mph 9.2 mph 47 % 0.00 in
17:54 26.7 °F 8.7 °F 30.40 in SW 6.0 mph 12.7 mph 46 % 0.00 in
17:55 26.6 °F 8.6 °F 30.40 in WSW 5.6 mph 11.5 mph 46 % 0.00 in
18:00 26.6 °F 8.1 °F 30.40 in WNW 8.9 mph 12.7 mph 45 % 0.00 in
18:01 26.6 °F 8.1 °F 30.40 in WSW 5.3 mph 11.5 mph 45 % 0.00 in
18:06 26.6 °F 8.6 °F 30.41 in WSW 5.0 mph 11.5 mph 46 % 0.00 in
18:08 26.6 °F 8.6 °F 30.41 in NW 5.6 mph 6.9 mph 46 % 0.00 in
18:13 26.6 °F 8.6 °F 30.41 in West 4.7 mph 11.5 mph 46 % 0.00 in
18:14 26.6 °F 8.6 °F 30.41 in West 4.9 mph 8.1 mph 46 % 0.00 in
18:15 26.6 °F 8.6 °F 30.41 in NW 2.8 mph 8.1 mph 46 % 0.00 in
18:20 26.5 °F 8.5 °F 30.41 in SW 4.9 mph 9.2 mph 46 % 0.00 in
18:21 26.5 °F 9.0 °F 30.41 in West 4.3 mph 9.2 mph 47 % 0.00 in
18:26 26.5 °F 8.5 °F 30.41 in SW 6.1 mph 12.7 mph 46 % 0.00 in
18:31 26.5 °F 9.0 °F 30.41 in West 4.4 mph 9.0 mph 47 % 0.00 in
18:34 26.5 °F 9.4 °F 30.42 in SW 4.4 mph 11.5 mph 48 % 0.00 in
18:39 26.4 °F 8.9 °F 30.41 in SW 8.3 mph 10.4 mph 47 % 0.00 in
18:41 26.4 °F 8.9 °F 30.41 in WNW 4.2 mph 12.7 mph 47 % 0.00 in
18:46 26.4 °F 8.9 °F 30.41 in SW 6.2 mph 11.0 mph 47 % 0.00 in
18:50 26.4 °F 8.9 °F 30.41 in West 6.7 mph 11.0 mph 47 % 0.00 in
18:55 26.3 °F 8.3 °F 30.42 in WSW 6.4 mph 11.5 mph 46 % 0.00 in
18:56 26.3 °F 8.3 °F 30.42 in West 6.0 mph 16.0 mph 46 % 0.00 in
19:00 26.3 °F 8.3 °F 30.41 in WSW 3.8 mph 6.9 mph 46 % 0.00 in
19:02 26.4 °F 8.9 °F 30.41 in West 3.2 mph 8.1 mph 47 % 0.00 in
19:07 26.3 °F 8.8 °F 30.41 in West 4.7 mph 11.5 mph 47 % 0.00 in
19:12 26.3 °F 8.8 °F 30.41 in NW 3.1 mph 6.9 mph 47 % 0.00 in
19:14 26.2 °F 9.2 °F 30.41 in West 3.9 mph 8.0 mph 48 % 0.00 in
19:19 26.2 °F 9.2 °F 30.42 in NW 3.5 mph 10.4 mph 48 % 0.00 in
19:25 26.1 °F 9.1 °F 30.41 in WSW 1.9 mph 6.9 mph 48 % 0.00 in
19:26 26.1 °F 9.1 °F 30.41 in West 2.0 mph 10.0 mph 48 % 0.00 in
19:28 26.1 °F 9.1 °F 30.41 in West 4.5 mph 8.1 mph 48 % 0.00 in
19:33 26.1 °F 9.1 °F 30.41 in WNW 4.9 mph 11.5 mph 48 % 0.00 in
19:38 26.1 °F 9.1 °F 30.41 in West 5.9 mph 15.0 mph 48 % 0.00 in
19:39 26.0 °F 9.0 °F 30.41 in NW 3.2 mph 9.2 mph 48 % 0.00 in
19:44 26.0 °F 9.4 °F 30.41 in WSW 5.1 mph 11.5 mph 49 % 0.00 in
19:47 26.0 °F 9.0 °F 30.41 in West 5.0 mph 9.2 mph 48 % 0.00 in
19:50 26.0 °F 9.4 °F 30.41 in WNW 3.3 mph 8.1 mph 49 % 0.00 in
19:55 26.0 °F 9.9 °F 30.41 in West 1.8 mph 11.5 mph 50 % 0.00 in
19:57 25.9 °F 9.8 °F 30.41 in WNW 1.9 mph 9.2 mph 50 % 0.00 in
20:03 25.9 °F 9.3 °F 30.41 in West 4.1 mph 10.4 mph 49 % 0.00 in
20:04 25.9 °F 9.3 °F 30.41 in West 3.5 mph 6.9 mph 49 % 0.00 in
20:09 25.9 °F 9.8 °F 30.41 in WNW 1.6 mph 6.0 mph 50 % 0.00 in
20:10 25.8 °F 9.7 °F 30.41 in West 2.5 mph 5.8 mph 50 % 0.00 in
20:14 25.8 °F 10.1 °F 30.41 in WSW 2.0 mph 3.5 mph 51 % 0.00 in
20:16 25.8 °F 10.1 °F 30.41 in West 2.0 mph 3.5 mph 51 % 0.00 in
20:21 25.7 °F 9.6 °F 30.40 in WNW 1.8 mph 6.9 mph 50 % 0.00 in
20:22 25.7 °F 10.0 °F 30.41 in WNW 2.8 mph 11.5 mph 51 % 0.00 in
20:28 25.6 °F 10.0 °F 30.41 in NW 4.5 mph 10.4 mph 51 % 0.00 in
20:32 25.6 °F 9.5 °F 30.41 in WNW 3.7 mph 11.5 mph 50 % 0.00 in
20:36 25.6 °F 10.0 °F 30.42 in West 4.5 mph 6.9 mph 51 % 0.00 in
20:41 25.5 °F 9.9 °F 30.41 in WNW 2.9 mph 6.9 mph 51 % 0.00 in
20:42 25.5 °F 9.9 °F 30.41 in West 4.6 mph 8.1 mph 51 % 0.00 in
20:47 25.5 °F 9.9 °F 30.43 in NW 2.9 mph 4.6 mph 51 % 0.00 in
20:49 25.5 °F 9.9 °F 30.43 in West 2.1 mph 3.5 mph 51 % 0.00 in
20:50 25.5 °F 9.9 °F 30.43 in WNW 3.0 mph 4.6 mph 51 % 0.00 in
20:55 25.4 °F 9.8 °F 30.43 in WNW 3.6 mph 5.8 mph 51 % 0.00 in
20:56 25.4 °F 10.2 °F 30.43 in WNW 4.1 mph 6.9 mph 52 % 0.00 in
21:01 25.4 °F 9.8 °F 30.43 in NNW 3.4 mph 4.0 mph 51 % 0.00 in
21:06 25.3 °F 9.7 °F 30.43 in WNW 2.0 mph 9.0 mph 51 % 0.00 in
21:09 25.3 °F 10.1 °F 30.43 in West 2.3 mph 4.6 mph 52 % 0.00 in
21:14 25.2 °F 10.0 °F 30.43 in NW 2.9 mph 6.0 mph 52 % 0.00 in
21:18 25.2 °F 10.0 °F 30.43 in NW 4.6 mph 5.8 mph 52 % 0.00 in
21:22 25.2 °F 10.0 °F 30.43 in West 2.3 mph 8.1 mph 52 % 0.00 in
21:25 25.2 °F 9.6 °F 30.43 in West 2.7 mph 4.0 mph 51 % 0.00 in
21:28 25.2 °F 9.6 °F 30.43 in West 0.4 mph 4.6 mph 51 % 0.00 in
21:31 25.2 °F 10.0 °F 30.43 in WNW 3.0 mph 8.0 mph 52 % 0.00 in
21:36 25.1 °F 9.9 °F 30.43 in WNW 3.0 mph 7.0 mph 52 % 0.00 in
21:41 25.1 °F 9.9 °F 30.43 in WNW 4.7 mph 8.1 mph 52 % 0.00 in
21:42 25.2 °F 9.6 °F 30.43 in NW 2.8 mph 8.1 mph 51 % 0.00 in
21:43 25.1 °F 9.5 °F 30.43 in NW 0.6 mph 3.5 mph 51 % 0.00 in
21:48 25.2 °F 10.0 °F 30.43 in WNW 3.0 mph 7.0 mph 52 % 0.00 in
21:49 25.2 °F 10.0 °F 30.43 in WNW 4.4 mph 6.9 mph 52 % 0.00 in
21:53 25.2 °F 10.0 °F 30.43 in WNW 1.3 mph 4.0 mph 52 % 0.00 in
21:58 25.1 °F 9.9 °F 30.43 in WSW 2.7 mph 4.6 mph 52 % 0.00 in
22:03 25.1 °F 9.9 °F 30.43 in WNW 3.2 mph 8.1 mph 52 % 0.00 in
22:04 25.1 °F 9.9 °F 30.43 in WSW 2.2 mph 5.0 mph 52 % 0.00 in
22:08 25.1 °F 9.9 °F 30.43 in WNW 3.5 mph 6.0 mph 52 % 0.00 in
22:15 25.1 °F 9.9 °F 30.43 in WNW 2.7 mph 5.0 mph 52 % 0.00 in
22:20 25.0 °F 9.8 °F 30.43 in WNW 2.1 mph 4.6 mph 52 % 0.00 in
22:25 25.0 °F 9.8 °F 30.44 in NW 3.2 mph 5.8 mph 52 % 0.00 in
22:29 25.0 °F 9.8 °F 30.43 in WNW 4.9 mph 6.9 mph 52 % 0.00 in
22:34 24.9 °F 9.7 °F 30.44 in West 3.1 mph 4.6 mph 52 % 0.00 in
22:35 25.0 °F 9.8 °F 30.44 in NW 1.2 mph 4.6 mph 52 % 0.00 in
22:40 24.9 °F 10.2 °F 30.44 in WNW 2.4 mph 4.6 mph 53 % 0.00 in
22:41 24.9 °F 10.2 °F 30.44 in WNW 2.0 mph 6.0 mph 53 % 0.00 in
22:42 24.9 °F 10.2 °F 30.44 in WNW 2.6 mph 4.6 mph 53 % 0.00 in
22:48 24.8 °F 10.1 °F 30.44 in NNW 1.6 mph 5.0 mph 53 % 0.00 in
22:52 24.8 °F 10.1 °F 30.44 in NW 1.6 mph 5.8 mph 53 % 0.00 in
22:53 24.8 °F 10.5 °F 30.44 in NW 2.6 mph 7.0 mph 54 % 0.00 in
22:58 24.7 °F 10.0 °F 30.44 in WNW 1.2 mph 3.5 mph 53 % 0.00 in
23:00 24.7 °F 10.4 °F 30.44 in WSW 1.0 mph 4.6 mph 54 % 0.00 in
23:05 24.7 °F 10.4 °F 30.44 in WNW 4.6 mph 9.2 mph 54 % 0.00 in
23:07 24.6 °F 10.3 °F 30.44 in NW 4.4 mph 8.0 mph 54 % 0.00 in
23:11 24.6 °F 10.3 °F 30.44 in WNW 2.2 mph 6.9 mph 54 % 0.00 in
23:13 24.6 °F 10.3 °F 30.43 in West 6.5 mph 9.0 mph 54 % 0.00 in
23:18 24.6 °F 10.3 °F 30.43 in NW 5.0 mph 8.1 mph 54 % 0.00 in
23:23 24.6 °F 10.3 °F 30.43 in NW 1.2 mph 5.8 mph 54 % 0.00 in
23:25 24.6 °F 10.3 °F 30.43 in NW 4.1 mph 6.9 mph 54 % 0.00 in
23:27 24.5 °F 10.6 °F 30.43 in WNW 2.4 mph 4.6 mph 55 % 0.00 in
23:32 24.5 °F 10.6 °F 30.43 in NNE 2.1 mph 3.5 mph 55 % 0.00 in
23:37 24.5 °F 11.0 °F 30.43 in WNW 2.4 mph 3.5 mph 56 % 0.00 in
23:41 24.5 °F 11.0 °F 30.43 in WNW 5.3 mph 10.4 mph 56 % 0.00 in
23:46 24.4 °F 10.5 °F 30.44 in NW 3.1 mph 9.2 mph 55 % 0.00 in
23:47 24.4 °F 10.9 °F 30.44 in WNW 3.1 mph 6.9 mph 56 % 0.00 in
23:52 24.4 °F 10.5 °F 30.45 in NW 4.8 mph 13.8 mph 55 % 0.00 in
23:57 24.3 °F 10.4 °F 30.45 in WNW 5.0 mph 6.9 mph 55 % 0.00 in
Crab Meadow Weather
Compliments of Weather Underground - 3.75 mb

Script developed by  Jim McMurry - jmcmurry@mwt.net Adapted for the template by  Wim van der Kuil - Leuven-Template.eu

Weather Terms: Wind Advisory - Sustained winds of 30 mph or greater or gusts to 45 mph or greater for a duration of one hour or longer.